createdAt,value
2022-08-18T00:00:01.445Z,18.70
2022-08-18T00:02:30.583Z,17.30
2022-08-18T00:05:00.204Z,18.90
2022-08-18T00:07:32.184Z,17.30
2022-08-18T00:10:01.407Z,18.90
2022-08-18T00:12:57.074Z,17.00
2022-08-18T00:15:26.680Z,19.50
2022-08-18T00:17:54.452Z,17.90
2022-08-18T00:20:24.428Z,19.10
2022-08-18T00:22:52.807Z,18.90
2022-08-18T00:25:22.270Z,19.20
2022-08-18T00:27:50.155Z,17.90
2022-08-18T00:35:33.962Z,17.40
2022-08-18T00:38:05.631Z,17.20
2022-08-18T00:40:41.915Z,19.30
2022-08-18T00:43:25.308Z,17.60
2022-08-18T00:45:53.218Z,17.90
2022-08-18T00:48:23.829Z,17.20
2022-08-18T00:53:52.083Z,17.30
2022-08-18T00:59:31.219Z,18.00
2022-08-18T01:02:04.028Z,18.50
2022-08-18T01:04:42.182Z,19.20
2022-08-18T01:07:34.119Z,17.10
2022-08-18T01:10:04.745Z,18.90
2022-08-18T01:15:27.769Z,18.20
2022-08-18T01:18:41.205Z,19.20
2022-08-18T01:24:09.308Z,18.90
2022-08-18T01:26:44.238Z,19.40
2022-08-18T01:29:19.150Z,17.70
2022-08-18T01:31:55.501Z,17.90
2022-08-18T01:34:27.423Z,17.30
2022-08-18T01:36:55.986Z,19.10
2022-08-18T01:41:23.961Z,18.20
2022-08-18T01:42:20.309Z,17.70
2022-08-18T01:44:51.087Z,17.10
2022-08-18T01:47:19.966Z,16.70
2022-08-18T01:49:47.718Z,19.00
2022-08-18T01:52:21.838Z,17.30
2022-08-18T01:54:51.787Z,18.20
2022-08-18T01:57:21.454Z,18.70
2022-08-18T02:02:25.850Z,17.30
2022-08-18T02:05:01.493Z,17.50
2022-08-18T02:12:41.447Z,17.90
2022-08-18T02:15:10.954Z,18.30
2022-08-18T02:17:41.453Z,17.20
2022-08-18T02:20:15.008Z,17.10
2022-08-18T02:27:39.551Z,17.30
2022-08-18T02:32:39.062Z,18.70
2022-08-18T02:37:47.750Z,16.60
2022-08-18T02:40:17.390Z,17.00
2022-08-18T02:42:46.893Z,16.90
2022-08-18T02:45:14.827Z,17.10
2022-08-18T02:47:49.174Z,17.30
2022-08-18T02:50:17.019Z,17.60
2022-08-18T02:52:44.834Z,19.10
2022-08-18T02:57:45.834Z,16.70
2022-08-18T03:00:16.536Z,17.10
2022-08-18T03:02:52.000Z,17.10
2022-08-18T03:05:22.790Z,15.90
2022-08-18T03:07:51.037Z,18.10
2022-08-18T03:10:31.787Z,16.50
2022-08-18T03:13:02.267Z,16.40
2022-08-18T03:15:30.075Z,17.20
2022-08-18T03:17:58.114Z,16.20
2022-08-18T03:20:30.907Z,16.80
2022-08-18T03:23:09.597Z,17.20
2022-08-18T03:25:47.573Z,16.90
2022-08-18T03:28:16.895Z,17.00
2022-08-18T03:30:44.791Z,15.90
2022-08-18T03:33:12.783Z,16.30
2022-08-18T03:36:06.844Z,17.00
2022-08-18T03:38:34.891Z,17.80
2022-08-18T03:41:02.661Z,16.80
2022-08-18T03:43:50.824Z,17.90
2022-08-18T03:46:22.123Z,16.10
2022-08-18T03:48:50.532Z,18.70
2022-08-18T03:51:26.657Z,17.20
2022-08-18T03:53:59.350Z,17.60
2022-08-18T03:56:34.626Z,17.70
2022-08-18T03:59:28.141Z,17.30
2022-08-18T04:01:56.981Z,17.50
2022-08-18T04:04:51.365Z,18.70
2022-08-18T04:07:21.247Z,17.00
2022-08-18T04:09:53.658Z,17.10
2022-08-18T04:14:50.284Z,18.70
2022-08-18T04:17:24.895Z,18.90
2022-08-18T04:19:54.095Z,18.00
2022-08-18T04:22:23.023Z,17.30
2022-08-18T04:27:22.419Z,17.30
2022-08-18T04:29:50.229Z,18.60
2022-08-18T04:32:19.312Z,19.00
2022-08-18T04:34:47.040Z,19.40
2022-08-18T04:37:15.501Z,17.20
2022-08-18T04:39:44.306Z,18.40
2022-08-18T04:42:12.115Z,17.40
2022-08-18T04:44:44.843Z,18.40
2022-08-18T04:47:13.180Z,18.50
2022-08-18T04:49:41.134Z,17.20
2022-08-18T04:52:40.645Z,17.50
2022-08-18T04:55:10.587Z,17.30
2022-08-18T05:00:08.411Z,19.50
2022-08-18T05:02:36.212Z,20.10
2022-08-18T05:05:05.651Z,17.30
2022-08-18T05:07:33.646Z,17.30
2022-08-18T05:10:01.661Z,19.50
2022-08-18T05:12:29.581Z,18.30
2022-08-18T05:14:57.700Z,18.80
2022-08-18T05:17:30.044Z,17.70
2022-08-18T05:20:04.027Z,17.60
2022-08-18T05:22:39.159Z,18.60
2022-08-18T05:30:11.534Z,19.10
2022-08-18T05:32:48.602Z,18.20
2022-08-18T05:35:26.642Z,19.70
2022-08-18T05:38:15.847Z,18.60
2022-08-18T05:40:46.000Z,18.70
2022-08-18T05:43:15.171Z,18.90
2022-08-18T05:45:43.317Z,19.00
2022-08-18T05:48:11.117Z,17.30
2022-08-18T05:50:38.879Z,19.40
2022-08-18T05:53:13.549Z,18.80
2022-08-18T05:56:21.852Z,20.40
2022-08-18T05:58:51.970Z,19.30
2022-08-18T06:01:33.781Z,18.50
2022-08-18T06:04:07.216Z,19.90
2022-08-18T06:06:36.925Z,18.60
2022-08-18T06:09:17.798Z,20.40
2022-08-18T06:11:45.768Z,19.20
2022-08-18T06:14:13.728Z,19.20
2022-08-18T06:17:35.124Z,19.30
2022-08-18T06:20:31.621Z,19.40
2022-08-18T06:23:21.393Z,19.30
2022-08-18T06:26:34.799Z,19.60
2022-08-18T06:29:21.589Z,19.40
2022-08-18T06:32:07.406Z,19.40
2022-08-18T06:34:59.260Z,19.20
2022-08-18T06:37:56.928Z,19.30
2022-08-18T06:40:24.677Z,19.40
2022-08-18T06:42:52.431Z,19.40
2022-08-18T06:45:33.824Z,19.70
2022-08-18T06:48:33.138Z,18.30
2022-08-18T06:51:04.112Z,19.50
2022-08-18T06:53:57.946Z,19.20
2022-08-18T06:56:28.571Z,19.40
2022-08-18T06:59:31.702Z,19.30
2022-08-18T07:02:22.888Z,21.20
2022-08-18T07:05:14.480Z,19.60
2022-08-18T07:10:13.885Z,19.90
2022-08-18T07:12:42.205Z,20.00
2022-08-18T07:15:27.507Z,20.20
2022-08-18T07:20:25.797Z,21.40
2022-08-18T07:23:00.214Z,19.70
2022-08-18T07:25:42.114Z,21.00
2022-08-18T07:28:39.792Z,19.30
2022-08-18T07:31:42.799Z,19.20
2022-08-18T07:34:25.405Z,21.00
2022-08-18T07:37:03.375Z,18.70
2022-08-18T07:40:06.122Z,21.60
2022-08-18T07:43:00.647Z,20.00
2022-08-18T07:45:33.641Z,21.10
2022-08-18T07:48:38.206Z,19.40
2022-08-18T07:51:35.166Z,19.80
2022-08-18T07:54:48.893Z,21.90
2022-08-18T07:57:56.545Z,19.70
2022-08-18T08:00:57.570Z,19.60
2022-08-18T08:04:25.543Z,21.40
2022-08-18T08:07:23.459Z,20.90
2022-08-18T08:12:37.018Z,21.30
2022-08-18T08:15:53.286Z,21.50
2022-08-18T08:18:36.439Z,20.00
2022-08-18T08:21:15.566Z,20.90
2022-08-18T08:23:55.973Z,21.30
2022-08-18T08:26:49.121Z,22.10
2022-08-18T08:30:03.007Z,21.10
2022-08-18T08:32:39.273Z,20.00
2022-08-18T08:38:44.460Z,21.50
2022-08-18T08:41:26.099Z,21.40
2022-08-18T08:44:11.344Z,21.60
2022-08-18T08:46:52.312Z,21.20
2022-08-18T08:49:35.902Z,20.80
2022-08-18T08:52:10.242Z,22.20
2022-08-18T08:54:53.680Z,20.50
2022-08-18T08:57:34.266Z,22.10
2022-08-18T09:00:06.612Z,21.90
2022-08-18T09:02:52.917Z,22.20
2022-08-18T09:08:23.970Z,21.70
2022-08-18T09:11:18.753Z,22.40
2022-08-18T09:14:33.616Z,22.10
2022-08-18T09:17:33.913Z,21.70
2022-08-18T09:23:10.278Z,21.90
2022-08-18T09:26:41.240Z,21.70
2022-08-18T09:29:27.354Z,22.10
2022-08-18T09:32:24.062Z,21.70
2022-08-18T09:35:05.516Z,22.10
2022-08-18T09:38:11.945Z,23.30
2022-08-18T09:41:11.365Z,21.10
2022-08-18T09:43:55.510Z,21.40
2022-08-18T09:49:40.897Z,21.30
2022-08-18T09:52:24.121Z,21.30
2022-08-18T09:55:09.570Z,21.10
2022-08-18T10:00:33.737Z,21.70
2022-08-18T10:03:11.134Z,22.00
2022-08-18T10:05:40.049Z,21.80
2022-08-18T10:08:37.009Z,21.80
2022-08-18T10:11:41.055Z,22.40
2022-08-18T10:14:35.420Z,22.60
2022-08-18T10:17:53.856Z,22.30
2022-08-18T10:23:10.371Z,24.00
2022-08-18T10:25:47.503Z,23.20
2022-08-18T10:29:37.903Z,23.80
2022-08-18T10:32:08.181Z,24.30
2022-08-18T10:43:26.720Z,22.70
2022-08-18T10:46:23.719Z,23.90
2022-08-18T10:48:42.143Z,24.80
2022-08-18T10:51:30.774Z,24.10
2022-08-18T10:54:29.839Z,24.90
2022-08-18T10:57:28.714Z,22.50
2022-08-18T11:00:19.783Z,24.40
2022-08-18T11:05:42.881Z,24.60
2022-08-18T11:08:17.202Z,24.20
2022-08-18T11:11:24.867Z,23.80
2022-08-18T11:14:01.275Z,24.20
2022-08-18T11:17:51.785Z,24.90
2022-08-18T11:23:00.944Z,24.00
2022-08-18T11:25:34.673Z,25.80
2022-08-18T11:30:37.539Z,25.40
2022-08-18T11:33:08.025Z,24.60
2022-08-18T11:35:58.027Z,24.90
2022-08-18T11:38:29.411Z,24.00
2022-08-18T11:41:48.101Z,25.70
2022-08-18T11:44:25.364Z,24.80
2022-08-18T11:46:57.414Z,25.60
2022-08-18T11:49:36.575Z,25.00
2022-08-18T11:52:30.977Z,24.20
2022-08-18T11:57:59.039Z,25.00
2022-08-18T12:00:46.050Z,24.50
2022-08-18T12:03:31.990Z,24.40
2022-08-18T12:09:02.127Z,24.00
2022-08-18T12:12:01.116Z,24.90
2022-08-18T12:14:35.280Z,24.90
2022-08-18T12:17:08.006Z,25.60
2022-08-18T12:19:36.122Z,24.20
2022-08-18T12:22:19.080Z,24.10
2022-08-18T12:24:48.496Z,23.70
2022-08-18T12:27:21.439Z,23.30
2022-08-18T12:29:55.729Z,23.60
2022-08-18T12:32:41.803Z,24.50
2022-08-18T12:35:15.753Z,24.60
2022-08-18T12:38:13.805Z,25.10
2022-08-18T12:40:38.140Z,24.60
2022-08-18T12:43:06.690Z,25.00
2022-08-18T12:45:37.558Z,24.60
2022-08-18T12:48:07.778Z,24.80
2022-08-18T12:50:49.715Z,25.40
2022-08-18T12:53:29.043Z,27.80
2022-08-18T12:55:58.840Z,28.20
2022-08-18T12:58:28.234Z,28.30
2022-08-18T13:00:56.660Z,28.50
2022-08-18T13:03:42.543Z,30.10
2022-08-18T13:06:15.353Z,30.30
2022-08-18T13:08:49.993Z,28.50
2022-08-18T13:11:24.909Z,31.70
2022-08-18T13:13:56.063Z,30.00
2022-08-18T13:16:54.206Z,31.60
2022-08-18T13:19:22.922Z,30.70
2022-08-18T13:21:51.814Z,33.00
2022-08-18T13:24:21.219Z,31.90
2022-08-18T13:26:51.719Z,31.60
2022-08-18T13:29:21.000Z,32.00
2022-08-18T13:31:57.745Z,31.30
2022-08-18T13:34:29.970Z,32.30
2022-08-18T13:39:33.617Z,31.00
2022-08-18T13:42:21.583Z,29.00
2022-08-18T13:44:53.230Z,31.30
2022-08-18T13:49:58.521Z,30.20
2022-08-18T13:52:36.200Z,31.10
2022-08-18T13:55:16.799Z,30.60
2022-08-18T13:57:49.987Z,29.40
2022-08-18T14:00:29.958Z,29.80
2022-08-18T14:03:02.038Z,31.40
2022-08-18T14:08:19.673Z,29.90
2022-08-18T14:10:50.763Z,28.30
2022-08-18T14:13:20.524Z,28.00
2022-08-18T14:15:56.186Z,27.80
2022-08-18T14:18:29.123Z,28.20
2022-08-18T14:21:23.202Z,28.40
2022-08-18T14:24:10.508Z,27.90
2022-08-18T14:26:49.960Z,27.60
2022-08-18T14:29:45.433Z,28.00
2022-08-18T14:32:07.486Z,26.70
2022-08-18T14:34:35.876Z,27.10
2022-08-18T14:37:03.923Z,27.60
2022-08-18T14:39:31.724Z,25.40
2022-08-18T14:42:04.333Z,26.90
2022-08-18T14:44:34.566Z,26.20
2022-08-18T14:47:02.568Z,25.60
2022-08-18T14:49:31.115Z,24.60
2022-08-18T14:52:01.148Z,24.70
2022-08-18T14:54:31.066Z,25.40
2022-08-18T14:57:03.940Z,25.90
2022-08-18T14:59:37.488Z,26.40
2022-08-18T15:02:13.077Z,26.30
2022-08-18T15:04:55.819Z,27.00
2022-08-18T15:07:26.464Z,26.40
2022-08-18T15:10:15.622Z,25.00
2022-08-18T15:13:10.343Z,27.50
2022-08-18T15:15:42.427Z,27.10
2022-08-18T15:18:22.559Z,27.60
2022-08-18T15:21:34.691Z,28.10
2022-08-18T15:26:51.575Z,27.80
2022-08-18T15:29:47.906Z,28.40
2022-08-18T15:32:18.758Z,28.10
2022-08-18T15:34:51.170Z,28.40
2022-08-18T15:37:22.318Z,28.60
2022-08-18T15:40:30.446Z,28.20
2022-08-18T15:43:01.520Z,28.50
2022-08-18T15:45:35.531Z,28.90
2022-08-18T15:48:04.171Z,28.00
2022-08-18T15:50:32.186Z,27.70
2022-08-18T15:53:07.934Z,27.80
2022-08-18T15:55:40.122Z,27.30
2022-08-18T15:58:11.074Z,27.80
2022-08-18T16:00:46.126Z,28.00
2022-08-18T16:03:21.126Z,28.50
2022-08-18T16:05:54.677Z,28.10
2022-08-18T16:08:24.815Z,30.20
2022-08-18T16:10:53.711Z,28.00
2022-08-18T16:13:29.103Z,29.10
2022-08-18T16:21:05.952Z,31.30
2022-08-18T16:23:33.718Z,31.30
2022-08-18T16:26:06.006Z,31.30
2022-08-18T16:33:32.024Z,30.80
2022-08-18T16:36:07.953Z,31.20
2022-08-18T16:41:14.068Z,31.20
2022-08-18T16:43:44.596Z,31.70
2022-08-18T16:48:57.368Z,30.40
2022-08-18T16:51:31.448Z,31.30
2022-08-18T16:53:59.741Z,31.40
2022-08-18T16:59:17.155Z,31.20
2022-08-18T17:02:03.525Z,29.30
2022-08-18T17:04:33.756Z,32.20
2022-08-18T17:07:04.783Z,30.90
2022-08-18T17:09:57.919Z,31.20
2022-08-18T17:17:24.932Z,28.20
2022-08-18T17:22:21.610Z,29.20
2022-08-18T17:27:27.701Z,30.30
2022-08-18T17:32:55.668Z,30.90
2022-08-18T17:38:44.845Z,27.80
2022-08-18T17:41:13.225Z,28.80
2022-08-18T17:49:16.190Z,26.90
2022-08-18T17:51:55.118Z,27.80
2022-08-18T17:54:29.793Z,28.70
2022-08-18T17:57:15.096Z,26.20
2022-08-18T17:59:57.933Z,27.10
2022-08-18T18:02:31.052Z,27.30
2022-08-18T18:12:42.057Z,24.80
2022-08-18T18:17:43.358Z,25.60
2022-08-18T18:20:15.975Z,25.30
2022-08-18T18:22:45.032Z,25.30
2022-08-18T18:30:27.965Z,25.50
2022-08-18T18:38:36.590Z,24.80
2022-08-18T18:41:12.129Z,24.50
2022-08-18T18:47:11.592Z,24.20
2022-08-18T18:49:43.955Z,24.70
2022-08-18T18:58:15.259Z,24.60
2022-08-18T19:00:54.337Z,24.50
2022-08-18T19:03:27.850Z,24.30
2022-08-18T19:06:05.591Z,23.90
2022-08-18T19:08:57.836Z,24.80
2022-08-18T19:11:57.509Z,22.10
2022-08-18T19:14:42.311Z,24.20
2022-08-18T19:17:34.305Z,22.50
2022-08-18T19:20:19.211Z,23.40
2022-08-18T19:25:44.320Z,22.50
2022-08-18T19:31:14.118Z,21.80
2022-08-18T19:33:56.847Z,22.60
2022-08-18T19:36:44.838Z,23.90
2022-08-18T19:42:10.960Z,21.90
2022-08-18T19:45:16.754Z,23.30
2022-08-18T19:53:32.292Z,22.60
2022-08-18T20:07:47.060Z,21.60
2022-08-18T20:10:27.713Z,21.30
2022-08-18T20:16:10.793Z,21.50
2022-08-18T20:18:49.568Z,19.80
2022-08-18T20:21:17.253Z,21.30
2022-08-18T20:29:03.472Z,19.90
2022-08-18T20:31:49.313Z,20.50
2022-08-18T20:34:23.237Z,20.10
2022-08-18T20:36:52.643Z,22.30
2022-08-18T20:50:46.031Z,22.20
2022-08-18T20:59:19.915Z,19.60
2022-08-18T21:02:26.368Z,19.40
2022-08-18T21:07:37.850Z,19.50
2022-08-18T21:10:20.772Z,21.20
2022-08-18T21:12:54.401Z,19.90
2022-08-18T21:15:37.242Z,19.60
2022-08-18T21:18:21.269Z,21.40
2022-08-18T21:23:37.558Z,19.50
2022-08-18T21:26:12.415Z,19.30
2022-08-18T21:41:53.747Z,19.40
2022-08-18T22:00:20.491Z,19.70
2022-08-18T22:12:01.122Z,19.90
2022-08-18T22:14:54.044Z,20.30
2022-08-18T22:20:48.996Z,19.20
2022-08-18T22:31:40.605Z,18.70
2022-08-18T22:37:01.872Z,19.70
2022-08-18T22:42:09.611Z,19.50
2022-08-18T22:44:38.015Z,19.60
2022-08-18T22:54:35.934Z,17.20
2022-08-18T23:04:31.286Z,17.30
2022-08-18T23:07:00.400Z,18.30
2022-08-18T23:09:31.451Z,17.00
2022-08-18T23:12:07.276Z,18.60
2022-08-18T23:24:31.041Z,17.20
2022-08-18T23:26:59.746Z,17.80
2022-08-18T23:32:00.019Z,19.20
2022-08-18T23:37:03.027Z,17.30
2022-08-18T23:39:33.403Z,19.10
2022-08-18T23:47:00.737Z,18.50
2022-08-18T23:51:59.299Z,18.80
2022-08-18T23:54:34.202Z,17.30
2022-08-18T23:59:30.331Z,16.90
